KILM/ILM METAR and TAF weather

Enter ICAO airport designator
Station Type Date Time Source
KILM METAR 2019/05/25 14:53 UTC NOAA

KILM 251453Z 11009KT 10SM CLR 29/19 A3015 RMK AO2 SLP210 T02940194 53007


Station Type Date Time Source
KILM Decoded METAR 2019/05/25 14:53 UTC NOAA

WILMINGTON INT'L AIRPORT, NC, United States (KILM) 34-16N 077-54W 9M
May 25, 2019 - 10:53 AM EDT / 2019.05.25 1453 UTC
Wind: from the ESE (110 degrees) at 10 MPH (9 KT):0
Visibility: 10 mile(s):0
Sky conditions: clear
Temperature: 84.9 F (29.4 C)
Dew Point: 66.9 F (19.4 C)
Relative Humidity: 54%
Pressure (altimeter): 30.15 in. Hg (1020 hPa)
Pressure tendency: 0.02 inches (0.7 hPa) higher than three hours ago
ob: KILM 251453Z 11009KT 10SM CLR 29/19 A3015 RMK AO2 SLP210 T02940194 53007
cycle: 15

Station Type Date Time Source
KILM TAF 2019/05/25 12:22 UTC NOAA

TAF KILM 251120Z 2512/2612 08011KT P6SM FEW060
FM251700 12010G19KT P6SM FEW060
FM260200 14008KT P6SM FEW060
FM260500 17007KT P6SM VCSH BKN060

Example: see airport list